sensor_id;sensor_type;location;lat;lon;timestamp;P1;durP1;ratioP1;P2;durP2;ratioP2
62911;SDS011;49111;51.028;4.218;2023-04-03T00:01:01;11.02;;;5.85;;
62911;SDS011;49111;51.028;4.218;2023-04-03T00:03:28;9.90;;;5.60;;
62911;SDS011;49111;51.028;4.218;2023-04-03T00:05:54;7.95;;;5.10;;
62911;SDS011;49111;51.028;4.218;2023-04-03T00:08:20;8.88;;;5.65;;
62911;SDS011;49111;51.028;4.218;2023-04-03T00:10:46;8.52;;;5.22;;
62911;SDS011;49111;51.028;4.218;2023-04-03T00:13:12;8.73;;;5.07;;
62911;SDS011;49111;51.028;4.218;2023-04-03T00:15:38;8.52;;;5.75;;
62911;SDS011;49111;51.028;4.218;2023-04-03T00:18:04;10.18;;;5.88;;
62911;SDS011;49111;51.028;4.218;2023-04-03T00:20:31;8.18;;;4.45;;
62911;SDS011;49111;51.028;4.218;2023-04-03T00:22:57;10.38;;;5.13;;
62911;SDS011;49111;51.028;4.218;2023-04-03T00:25:23;11.23;;;5.65;;
62911;SDS011;49111;51.028;4.218;2023-04-03T00:27:49;6.97;;;4.72;;
62911;SDS011;49111;51.028;4.218;2023-04-03T00:30:16;5.97;;;4.53;;
62911;SDS011;49111;51.028;4.218;2023-04-03T00:32:43;9.35;;;4.75;;
62911;SDS011;49111;51.028;4.218;2023-04-03T00:35:09;11.77;;;5.78;;
62911;SDS011;49111;51.028;4.218;2023-04-03T00:37:35;9.27;;;4.28;;
62911;SDS011;49111;51.028;4.218;2023-04-03T00:40:02;7.88;;;4.60;;
62911;SDS011;49111;51.028;4.218;2023-04-03T00:42:29;6.05;;;4.45;;
62911;SDS011;49111;51.028;4.218;2023-04-03T00:47:21;8.68;;;4.60;;
62911;SDS011;49111;51.028;4.218;2023-04-03T00:49:47;8.88;;;5.28;;
62911;SDS011;49111;51.028;4.218;2023-04-03T00:52:17;8.40;;;4.38;;
62911;SDS011;49111;51.028;4.218;2023-04-03T00:54:47;9.57;;;5.88;;
62911;SDS011;49111;51.028;4.218;2023-04-03T00:57:15;6.85;;;4.65;;
62911;SDS011;49111;51.028;4.218;2023-04-03T00:59:44;6.30;;;3.80;;
62911;SDS011;49111;51.028;4.218;2023-04-03T01:02:14;6.22;;;4.65;;
62911;SDS011;49111;51.028;4.218;2023-04-03T01:04:42;7.65;;;4.28;;
62911;SDS011;49111;51.028;4.218;2023-04-03T01:07:10;6.90;;;4.28;;
62911;SDS011;49111;51.028;4.218;2023-04-03T01:09:39;6.93;;;4.45;;
62911;SDS011;49111;51.028;4.218;2023-04-03T01:12:16;8.20;;;4.05;;
62911;SDS011;49111;51.028;4.218;2023-04-03T01:14:43;8.23;;;4.78;;
62911;SDS011;49111;51.028;4.218;2023-04-03T01:20:57;9.10;;;5.63;;
62911;SDS011;49111;51.028;4.218;2023-04-03T01:22:56;8.02;;;5.05;;
62911;SDS011;49111;51.028;4.218;2023-04-03T01:25:40;9.02;;;4.43;;
62911;SDS011;49111;51.028;4.218;2023-04-03T01:28:29;6.93;;;4.45;;
62911;SDS011;49111;51.028;4.218;2023-04-03T01:31:15;8.93;;;5.40;;
62911;SDS011;49111;51.028;4.218;2023-04-03T01:34:06;9.43;;;4.95;;
62911;SDS011;49111;51.028;4.218;2023-04-03T01:36:32;6.50;;;4.75;;
62911;SDS011;49111;51.028;4.218;2023-04-03T01:38:58;9.15;;;5.10;;
62911;SDS011;49111;51.028;4.218;2023-04-03T01:41:26;9.02;;;4.78;;
62911;SDS011;49111;51.028;4.218;2023-04-03T01:44:00;8.15;;;4.43;;
62911;SDS011;49111;51.028;4.218;2023-04-03T01:46:25;6.22;;;4.35;;
62911;SDS011;49111;51.028;4.218;2023-04-03T01:48:51;11.13;;;5.85;;
62911;SDS011;49111;51.028;4.218;2023-04-03T01:51:17;7.70;;;4.40;;
62911;SDS011;49111;51.028;4.218;2023-04-03T01:53:43;8.45;;;5.88;;
62911;SDS011;49111;51.028;4.218;2023-04-03T01:56:09;11.63;;;4.65;;
62911;SDS011;49111;51.028;4.218;2023-04-03T01:58:35;7.75;;;5.03;;
62911;SDS011;49111;51.028;4.218;2023-04-03T02:01:01;7.38;;;5.10;;
62911;SDS011;49111;51.028;4.218;2023-04-03T02:03:28;8.68;;;4.90;;
62911;SDS011;49111;51.028;4.218;2023-04-03T02:05:53;8.20;;;4.90;;
62911;SDS011;49111;51.028;4.218;2023-04-03T02:08:19;7.47;;;4.88;;
62911;SDS011;49111;51.028;4.218;2023-04-03T02:10:49;9.25;;;4.68;;
62911;SDS011;49111;51.028;4.218;2023-04-03T02:13:16;8.73;;;5.35;;
62911;SDS011;49111;51.028;4.218;2023-04-03T02:15:43;6.82;;;4.63;;
62911;SDS011;49111;51.028;4.218;2023-04-03T02:18:10;9.80;;;5.85;;
62911;SDS011;49111;51.028;4.218;2023-04-03T02:20:36;6.57;;;4.75;;
62911;SDS011;49111;51.028;4.218;2023-04-03T02:23:04;7.60;;;5.15;;
62911;SDS011;49111;51.028;4.218;2023-04-03T02:25:31;9.75;;;5.78;;
62911;SDS011;49111;51.028;4.218;2023-04-03T02:27:58;7.57;;;4.95;;
62911;SDS011;49111;51.028;4.218;2023-04-03T02:30:24;6.85;;;5.20;;
62911;SDS011;49111;51.028;4.218;2023-04-03T02:32:50;6.75;;;4.60;;
62911;SDS011;49111;51.028;4.218;2023-04-03T02:35:16;6.78;;;4.38;;
62911;SDS011;49111;51.028;4.218;2023-04-03T02:37:42;8.02;;;5.35;;
62911;SDS011;49111;51.028;4.218;2023-04-03T02:40:08;6.35;;;4.57;;
62911;SDS011;49111;51.028;4.218;2023-04-03T02:42:35;7.43;;;4.93;;
62911;SDS011;49111;51.028;4.218;2023-04-03T02:45:02;7.00;;;4.47;;
62911;SDS011;49111;51.028;4.218;2023-04-03T02:47:28;6.28;;;4.68;;
62911;SDS011;49111;51.028;4.218;2023-04-03T02:49:54;8.43;;;5.32;;
62911;SDS011;49111;51.028;4.218;2023-04-03T02:52:20;6.68;;;3.85;;
62911;SDS011;49111;51.028;4.218;2023-04-03T02:54:47;9.50;;;5.78;;
62911;SDS011;49111;51.028;4.218;2023-04-03T02:57:13;8.88;;;5.70;;
62911;SDS011;49111;51.028;4.218;2023-04-03T02:59:39;6.20;;;4.28;;
62911;SDS011;49111;51.028;4.218;2023-04-03T03:02:07;8.13;;;5.22;;
62911;SDS011;49111;51.028;4.218;2023-04-03T03:04:33;8.65;;;5.07;;
62911;SDS011;49111;51.028;4.218;2023-04-03T03:07:00;11.15;;;5.53;;
62911;SDS011;49111;51.028;4.218;2023-04-03T03:09:27;8.77;;;5.47;;
62911;SDS011;49111;51.028;4.218;2023-04-03T03:11:54;7.72;;;4.85;;
62911;SDS011;49111;51.028;4.218;2023-04-03T03:14:21;8.68;;;5.93;;
62911;SDS011;49111;51.028;4.218;2023-04-03T03:16:47;7.50;;;5.03;;
62911;SDS011;49111;51.028;4.218;2023-04-03T03:19:13;7.90;;;5.47;;
62911;SDS011;49111;51.028;4.218;2023-04-03T03:21:39;7.22;;;4.82;;
62911;SDS011;49111;51.028;4.218;2023-04-03T03:24:06;8.30;;;6.13;;
62911;SDS011;49111;51.028;4.218;2023-04-03T03:26:32;7.95;;;5.70;;
62911;SDS011;49111;51.028;4.218;2023-04-03T03:28:58;8.55;;;5.93;;
62911;SDS011;49111;51.028;4.218;2023-04-03T03:31:24;8.75;;;6.10;;
62911;SDS011;49111;51.028;4.218;2023-04-03T03:33:50;10.05;;;5.00;;
62911;SDS011;49111;51.028;4.218;2023-04-03T03:36:16;6.57;;;4.57;;
62911;SDS011;49111;51.028;4.218;2023-04-03T03:38:42;11.18;;;5.97;;
62911;SDS011;49111;51.028;4.218;2023-04-03T03:41:08;7.68;;;5.82;;
62911;SDS011;49111;51.028;4.218;2023-04-03T03:43:34;8.65;;;5.57;;
62911;SDS011;49111;51.028;4.218;2023-04-03T03:46:02;10.35;;;5.47;;
62911;SDS011;49111;51.028;4.218;2023-04-03T03:48:28;9.38;;;5.65;;
62911;SDS011;49111;51.028;4.218;2023-04-03T03:50:55;8.45;;;5.60;;
62911;SDS011;49111;51.028;4.218;2023-04-03T03:53:24;7.55;;;5.38;;
62911;SDS011;49111;51.028;4.218;2023-04-03T03:55:54;9.45;;;5.72;;
62911;SDS011;49111;51.028;4.218;2023-04-03T03:58:23;8.63;;;5.60;;
62911;SDS011;49111;51.028;4.218;2023-04-03T04:00:49;7.47;;;5.40;;
62911;SDS011;49111;51.028;4.218;2023-04-03T04:03:14;8.20;;;5.22;;
62911;SDS011;49111;51.028;4.218;2023-04-03T04:05:43;9.32;;;5.85;;
62911;SDS011;49111;51.028;4.218;2023-04-03T04:08:09;8.32;;;5.07;;
62911;SDS011;49111;51.028;4.218;2023-04-03T04:10:35;9.82;;;5.70;;
62911;SDS011;49111;51.028;4.218;2023-04-03T04:13:03;8.73;;;5.63;;
62911;SDS011;49111;51.028;4.218;2023-04-03T04:15:29;9.48;;;5.80;;
62911;SDS011;49111;51.028;4.218;2023-04-03T04:17:56;10.05;;;5.90;;
62911;SDS011;49111;51.028;4.218;2023-04-03T04:20:22;10.40;;;6.95;;
62911;SDS011;49111;51.028;4.218;2023-04-03T04:22:48;9.10;;;5.95;;
62911;SDS011;49111;51.028;4.218;2023-04-03T04:25:15;8.63;;;5.68;;
62911;SDS011;49111;51.028;4.218;2023-04-03T04:27:41;8.07;;;5.95;;
62911;SDS011;49111;51.028;4.218;2023-04-03T04:30:08;7.95;;;5.78;;
62911;SDS011;49111;51.028;4.218;2023-04-03T04:32:34;10.38;;;6.30;;
62911;SDS011;49111;51.028;4.218;2023-04-03T04:35:01;9.18;;;5.97;;
62911;SDS011;49111;51.028;4.218;2023-04-03T04:37:28;8.82;;;5.95;;
62911;SDS011;49111;51.028;4.218;2023-04-03T04:39:55;9.15;;;5.65;;
62911;SDS011;49111;51.028;4.218;2023-04-03T04:42:21;10.00;;;6.60;;
62911;SDS011;49111;51.028;4.218;2023-04-03T04:44:48;8.73;;;6.20;;
62911;SDS011;49111;51.028;4.218;2023-04-03T04:47:14;9.57;;;6.43;;
62911;SDS011;49111;51.028;4.218;2023-04-03T04:49:41;11.10;;;5.97;;
62911;SDS011;49111;51.028;4.218;2023-04-03T04:52:07;9.13;;;5.43;;
62911;SDS011;49111;51.028;4.218;2023-04-03T04:54:33;10.63;;;6.32;;
62911;SDS011;49111;51.028;4.218;2023-04-03T04:57:03;10.45;;;6.07;;
62911;SDS011;49111;51.028;4.218;2023-04-03T04:59:30;11.85;;;7.35;;
62911;SDS011;49111;51.028;4.218;2023-04-03T05:01:57;10.25;;;6.35;;
62911;SDS011;49111;51.028;4.218;2023-04-03T05:04:23;13.20;;;6.75;;
62911;SDS011;49111;51.028;4.218;2023-04-03T05:06:54;10.27;;;6.88;;
62911;SDS011;49111;51.028;4.218;2023-04-03T05:09:23;9.25;;;5.85;;
62911;SDS011;49111;51.028;4.218;2023-04-03T05:11:50;10.68;;;7.18;;
62911;SDS011;49111;51.028;4.218;2023-04-03T05:14:18;10.35;;;6.88;;
62911;SDS011;49111;51.028;4.218;2023-04-03T05:16:45;11.30;;;7.13;;
62911;SDS011;49111;51.028;4.218;2023-04-03T05:19:15;12.40;;;6.43;;
62911;SDS011;49111;51.028;4.218;2023-04-03T05:21:41;8.88;;;6.63;;
62911;SDS011;49111;51.028;4.218;2023-04-03T05:24:11;9.57;;;6.70;;
62911;SDS011;49111;51.028;4.218;2023-04-03T05:26:39;10.68;;;6.88;;
62911;SDS011;49111;51.028;4.218;2023-04-03T05:29:06;13.18;;;7.00;;
62911;SDS011;49111;51.028;4.218;2023-04-03T05:31:32;11.38;;;6.78;;
62911;SDS011;49111;51.028;4.218;2023-04-03T05:33:58;10.43;;;6.18;;
62911;SDS011;49111;51.028;4.218;2023-04-03T05:36:29;10.48;;;6.25;;
62911;SDS011;49111;51.028;4.218;2023-04-03T05:39:00;12.43;;;7.43;;
62911;SDS011;49111;51.028;4.218;2023-04-03T05:41:26;11.40;;;7.60;;
62911;SDS011;49111;51.028;4.218;2023-04-03T05:43:52;8.52;;;6.32;;
62911;SDS011;49111;51.028;4.218;2023-04-03T05:46:19;10.93;;;7.07;;
62911;SDS011;49111;51.028;4.218;2023-04-03T05:48:50;11.73;;;7.75;;
62911;SDS011;49111;51.028;4.218;2023-04-03T05:51:22;12.07;;;7.53;;
62911;SDS011;49111;51.028;4.218;2023-04-03T05:53:54;10.43;;;7.05;;
62911;SDS011;49111;51.028;4.218;2023-04-03T05:56:28;11.13;;;7.00;;
62911;SDS011;49111;51.028;4.218;2023-04-03T05:58:54;8.85;;;6.95;;
62911;SDS011;49111;51.028;4.218;2023-04-03T06:01:20;12.13;;;7.38;;
62911;SDS011;49111;51.028;4.218;2023-04-03T06:03:46;10.95;;;6.57;;
62911;SDS011;49111;51.028;4.218;2023-04-03T06:06:13;13.38;;;6.95;;
62911;SDS011;49111;51.028;4.218;2023-04-03T06:08:39;9.93;;;6.30;;
62911;SDS011;49111;51.028;4.218;2023-04-03T06:11:05;11.85;;;7.53;;
62911;SDS011;49111;51.028;4.218;2023-04-03T06:13:32;14.20;;;8.50;;
62911;SDS011;49111;51.028;4.218;2023-04-03T06:16:00;11.25;;;7.40;;
62911;SDS011;49111;51.028;4.218;2023-04-03T06:18:27;16.10;;;8.40;;
62911;SDS011;49111;51.028;4.218;2023-04-03T06:20:53;11.85;;;7.03;;
62911;SDS011;49111;51.028;4.218;2023-04-03T06:23:19;13.70;;;7.43;;
62911;SDS011;49111;51.028;4.218;2023-04-03T06:25:46;14.80;;;8.05;;
62911;SDS011;49111;51.028;4.218;2023-04-03T06:28:12;15.98;;;7.68;;
62911;SDS011;49111;51.028;4.218;2023-04-03T06:30:38;11.82;;;7.85;;
62911;SDS011;49111;51.028;4.218;2023-04-03T06:33:04;11.60;;;7.82;;
62911;SDS011;49111;51.028;4.218;2023-04-03T06:35:30;12.25;;;8.02;;
62911;SDS011;49111;51.028;4.218;2023-04-03T06:37:56;14.98;;;8.00;;
62911;SDS011;49111;51.028;4.218;2023-04-03T06:40:23;10.45;;;7.95;;
62911;SDS011;49111;51.028;4.218;2023-04-03T06:42:51;9.95;;;7.38;;
62911;SDS011;49111;51.028;4.218;2023-04-03T06:45:18;10.55;;;7.70;;
62911;SDS011;49111;51.028;4.218;2023-04-03T06:47:44;15.38;;;8.18;;
62911;SDS011;49111;51.028;4.218;2023-04-03T06:50:11;16.30;;;8.60;;
62911;SDS011;49111;51.028;4.218;2023-04-03T06:52:39;11.63;;;9.20;;
62911;SDS011;49111;51.028;4.218;2023-04-03T06:55:05;19.23;;;8.48;;
62911;SDS011;49111;51.028;4.218;2023-04-03T06:57:31;22.55;;;9.45;;
62911;SDS011;49111;51.028;4.218;2023-04-03T06:59:57;22.60;;;10.45;;
62911;SDS011;49111;51.028;4.218;2023-04-03T07:02:23;22.52;;;9.57;;
62911;SDS011;49111;51.028;4.218;2023-04-03T07:04:49;12.52;;;7.85;;
62911;SDS011;49111;51.028;4.218;2023-04-03T07:07:15;12.50;;;8.02;;
62911;SDS011;49111;51.028;4.218;2023-04-03T07:09:42;11.50;;;7.88;;
62911;SDS011;49111;51.028;4.218;2023-04-03T07:12:08;13.48;;;7.82;;
62911;SDS011;49111;51.028;4.218;2023-04-03T07:14:34;13.20;;;6.88;;
62911;SDS011;49111;51.028;4.218;2023-04-03T07:17:00;13.38;;;7.43;;
62911;SDS011;49111;51.028;4.218;2023-04-03T07:19:25;11.15;;;7.38;;
62911;SDS011;49111;51.028;4.218;2023-04-03T07:21:53;12.15;;;8.27;;
62911;SDS011;49111;51.028;4.218;2023-04-03T07:24:19;9.07;;;6.18;;
62911;SDS011;49111;51.028;4.218;2023-04-03T07:26:48;11.82;;;6.63;;
62911;SDS011;49111;51.028;4.218;2023-04-03T07:29:16;12.30;;;6.00;;
62911;SDS011;49111;51.028;4.218;2023-04-03T07:31:42;13.80;;;6.00;;
62911;SDS011;49111;51.028;4.218;2023-04-03T07:34:10;18.60;;;8.35;;
62911;SDS011;49111;51.028;4.218;2023-04-03T07:36:36;10.45;;;5.85;;
62911;SDS011;49111;51.028;4.218;2023-04-03T07:39:02;8.40;;;5.72;;
62911;SDS011;49111;51.028;4.218;2023-04-03T07:41:28;10.20;;;6.00;;
62911;SDS011;49111;51.028;4.218;2023-04-03T07:43:55;10.82;;;5.97;;
62911;SDS011;49111;51.028;4.218;2023-04-03T07:46:22;9.23;;;5.85;;
62911;SDS011;49111;51.028;4.218;2023-04-03T07:48:48;10.50;;;5.95;;
62911;SDS011;49111;51.028;4.218;2023-04-03T07:51:14;9.65;;;5.95;;
62911;SDS011;49111;51.028;4.218;2023-04-03T07:53:40;9.40;;;5.88;;
62911;SDS011;49111;51.028;4.218;2023-04-03T07:56:06;10.07;;;5.65;;
62911;SDS011;49111;51.028;4.218;2023-04-03T07:58:32;8.82;;;5.32;;
62911;SDS011;49111;51.028;4.218;2023-04-03T08:00:58;8.85;;;5.72;;
62911;SDS011;49111;51.028;4.218;2023-04-03T08:03:25;10.18;;;4.53;;
62911;SDS011;49111;51.028;4.218;2023-04-03T08:05:50;8.10;;;5.45;;
62911;SDS011;49111;51.028;4.218;2023-04-03T08:08:22;6.90;;;5.10;;
62911;SDS011;49111;51.028;4.218;2023-04-03T08:10:49;7.63;;;4.65;;
62911;SDS011;49111;51.028;4.218;2023-04-03T08:13:16;7.93;;;5.40;;
62911;SDS011;49111;51.028;4.218;2023-04-03T08:15:41;10.98;;;5.65;;
62911;SDS011;49111;51.028;4.218;2023-04-03T08:18:07;11.15;;;5.55;;
62911;SDS011;49111;51.028;4.218;2023-04-03T08:20:33;7.20;;;4.75;;
62911;SDS011;49111;51.028;4.218;2023-04-03T08:23:00;9.73;;;4.72;;
62911;SDS011;49111;51.028;4.218;2023-04-03T08:25:25;9.02;;;5.10;;
62911;SDS011;49111;51.028;4.218;2023-04-03T08:27:51;8.80;;;4.88;;
62911;SDS011;49111;51.028;4.218;2023-04-03T08:30:17;7.75;;;4.82;;
62911;SDS011;49111;51.028;4.218;2023-04-03T08:32:43;12.10;;;5.28;;
62911;SDS011;49111;51.028;4.218;2023-04-03T08:35:09;7.50;;;4.78;;
62911;SDS011;49111;51.028;4.218;2023-04-03T08:37:36;7.63;;;4.55;;
62911;SDS011;49111;51.028;4.218;2023-04-03T08:40:03;7.18;;;4.00;;
62911;SDS011;49111;51.028;4.218;2023-04-03T08:45:25;5.00;;;3.42;;
62911;SDS011;49111;51.028;4.218;2023-04-03T08:48:19;6.47;;;3.33;;
62911;SDS011;49111;51.028;4.218;2023-04-03T08:50:55;5.80;;;3.13;;
62911;SDS011;49111;51.028;4.218;2023-04-03T08:53:28;6.47;;;3.70;;
62911;SDS011;49111;51.028;4.218;2023-04-03T08:55:58;6.80;;;3.55;;
62911;SDS011;49111;51.028;4.218;2023-04-03T08:58:52;5.95;;;3.50;;
62911;SDS011;49111;51.028;4.218;2023-04-03T09:01:23;7.00;;;3.30;;
62911;SDS011;49111;51.028;4.218;2023-04-03T09:03:51;4.57;;;2.53;;
62911;SDS011;49111;51.028;4.218;2023-04-03T09:06:21;7.38;;;3.75;;
62911;SDS011;49111;51.028;4.218;2023-04-03T09:11:44;6.90;;;3.17;;
62911;SDS011;49111;51.028;4.218;2023-04-03T09:17:02;8.35;;;3.03;;
62911;SDS011;49111;51.028;4.218;2023-04-03T09:25:05;5.63;;;2.50;;
62911;SDS011;49111;51.028;4.218;2023-04-03T09:27:38;3.05;;;2.47;;
62911;SDS011;49111;51.028;4.218;2023-04-03T09:30:05;4.47;;;2.45;;
62911;SDS011;49111;51.028;4.218;2023-04-03T09:32:34;5.55;;;3.22;;
62911;SDS011;49111;51.028;4.218;2023-04-03T09:35:06;5.15;;;2.70;;
62911;SDS011;49111;51.028;4.218;2023-04-03T09:37:46;2.85;;;1.90;;
62911;SDS011;49111;51.028;4.218;2023-04-03T09:42:52;4.72;;;2.17;;
62911;SDS011;49111;51.028;4.218;2023-04-03T09:45:25;5.05;;;1.63;;
62911;SDS011;49111;51.028;4.218;2023-04-03T09:50:37;5.63;;;1.77;;
62911;SDS011;49111;51.028;4.218;2023-04-03T09:53:34;7.65;;;2.10;;
62911;SDS011;49111;51.028;4.218;2023-04-03T09:58:44;4.70;;;1.95;;
62911;SDS011;49111;51.028;4.218;2023-04-03T10:04:09;4.73;;;2.30;;
62911;SDS011;49111;51.028;4.218;2023-04-03T10:06:41;3.65;;;1.95;;
62911;SDS011;49111;51.028;4.218;2023-04-03T10:12:10;5.57;;;2.25;;
62911;SDS011;49111;51.028;4.218;2023-04-03T10:17:32;6.30;;;2.13;;
62911;SDS011;49111;51.028;4.218;2023-04-03T10:25:33;5.07;;;2.45;;
62911;SDS011;49111;51.028;4.218;2023-04-03T10:28:43;5.13;;;1.83;;
62911;SDS011;49111;51.028;4.218;2023-04-03T10:31:32;4.35;;;1.35;;
62911;SDS011;49111;51.028;4.218;2023-04-03T10:34:28;2.55;;;1.90;;
62911;SDS011;49111;51.028;4.218;2023-04-03T10:39:48;4.40;;;1.67;;
62911;SDS011;49111;51.028;4.218;2023-04-03T10:45:42;5.22;;;1.90;;
62911;SDS011;49111;51.028;4.218;2023-04-03T10:49:05;4.05;;;1.55;;
62911;SDS011;49111;51.028;4.218;2023-04-03T10:56:39;4.82;;;2.05;;
62911;SDS011;49111;51.028;4.218;2023-04-03T11:01:48;5.53;;;2.53;;
62911;SDS011;49111;51.028;4.218;2023-04-03T11:04:20;4.28;;;2.05;;
62911;SDS011;49111;51.028;4.218;2023-04-03T11:06:56;5.68;;;1.48;;
62911;SDS011;49111;51.028;4.218;2023-04-03T11:09:39;3.72;;;1.60;;
62911;SDS011;49111;51.028;4.218;2023-04-03T11:15:02;2.50;;;1.33;;
62911;SDS011;49111;51.028;4.218;2023-04-03T11:17:38;4.07;;;1.38;;
62911;SDS011;49111;51.028;4.218;2023-04-03T11:20:26;2.13;;;1.50;;
62911;SDS011;49111;51.028;4.218;2023-04-03T11:23:00;3.45;;;1.45;;
62911;SDS011;49111;51.028;4.218;2023-04-03T11:25:52;3.42;;;1.20;;
62911;SDS011;49111;51.028;4.218;2023-04-03T11:28:20;1.35;;;1.15;;
62911;SDS011;49111;51.028;4.218;2023-04-03T11:35:51;5.57;;;1.73;;
62911;SDS011;49111;51.028;4.218;2023-04-03T11:38:21;2.78;;;1.58;;
62911;SDS011;49111;51.028;4.218;2023-04-03T11:40:52;2.85;;;1.35;;
62911;SDS011;49111;51.028;4.218;2023-04-03T11:43:21;2.95;;;1.30;;
62911;SDS011;49111;51.028;4.218;2023-04-03T11:45:52;4.38;;;2.22;;
62911;SDS011;49111;51.028;4.218;2023-04-03T11:51:00;4.07;;;1.27;;
62911;SDS011;49111;51.028;4.218;2023-04-03T11:53:39;3.95;;;1.77;;
62911;SDS011;49111;51.028;4.218;2023-04-03T12:01:44;1.88;;;1.33;;
62911;SDS011;49111;51.028;4.218;2023-04-03T12:04:12;2.13;;;1.15;;
62911;SDS011;49111;51.028;4.218;2023-04-03T12:11:53;1.38;;;0.98;;
62911;SDS011;49111;51.028;4.218;2023-04-03T12:14:24;2.20;;;1.20;;
62911;SDS011;49111;51.028;4.218;2023-04-03T12:16:55;3.53;;;1.25;;
62911;SDS011;49111;51.028;4.218;2023-04-03T12:24:29;3.75;;;1.58;;
62911;SDS011;49111;51.028;4.218;2023-04-03T12:29:55;5.60;;;1.23;;
62911;SDS011;49111;51.028;4.218;2023-04-03T12:32:40;2.05;;;1.55;;
62911;SDS011;49111;51.028;4.218;2023-04-03T12:35:17;1.67;;;0.98;;
62911;SDS011;49111;51.028;4.218;2023-04-03T12:48:33;2.47;;;1.17;;
62911;SDS011;49111;51.028;4.218;2023-04-03T12:51:05;2.03;;;0.90;;
62911;SDS011;49111;51.028;4.218;2023-04-03T12:53:32;1.85;;;1.13;;
62911;SDS011;49111;51.028;4.218;2023-04-03T12:56:20;1.33;;;0.95;;
62911;SDS011;49111;51.028;4.218;2023-04-03T12:58:49;1.48;;;0.98;;
62911;SDS011;49111;51.028;4.218;2023-04-03T13:01:17;1.70;;;1.10;;
62911;SDS011;49111;51.028;4.218;2023-04-03T13:03:51;1.95;;;0.90;;
62911;SDS011;49111;51.028;4.218;2023-04-03T13:06:21;1.48;;;1.05;;
62911;SDS011;49111;51.028;4.218;2023-04-03T13:08:54;1.85;;;0.93;;
62911;SDS011;49111;51.028;4.218;2023-04-03T13:11:23;1.83;;;1.05;;
62911;SDS011;49111;51.028;4.218;2023-04-03T13:14:25;3.63;;;1.00;;
62911;SDS011;49111;51.028;4.218;2023-04-03T13:17:20;4.43;;;1.00;;
62911;SDS011;49111;51.028;4.218;2023-04-03T13:19:40;2.42;;;1.45;;
62911;SDS011;49111;51.028;4.218;2023-04-03T13:22:18;2.20;;;0.98;;
62911;SDS011;49111;51.028;4.218;2023-04-03T13:24:54;2.67;;;1.00;;
62911;SDS011;49111;51.028;4.218;2023-04-03T13:27:22;2.65;;;1.25;;
62911;SDS011;49111;51.028;4.218;2023-04-03T13:29:52;1.85;;;1.30;;
62911;SDS011;49111;51.028;4.218;2023-04-03T13:32:21;2.17;;;0.98;;
62911;SDS011;49111;51.028;4.218;2023-04-03T13:34:49;1.63;;;1.08;;
62911;SDS011;49111;51.028;4.218;2023-04-03T13:37:23;4.07;;;1.50;;
62911;SDS011;49111;51.028;4.218;2023-04-03T13:39:58;1.90;;;1.20;;
62911;SDS011;49111;51.028;4.218;2023-04-03T13:42:29;1.38;;;0.95;;
62911;SDS011;49111;51.028;4.218;2023-04-03T13:45:10;1.40;;;0.93;;
62911;SDS011;49111;51.028;4.218;2023-04-03T13:47:43;1.98;;;1.05;;
62911;SDS011;49111;51.028;4.218;2023-04-03T13:50:18;3.72;;;1.20;;
62911;SDS011;49111;51.028;4.218;2023-04-03T13:52:55;2.25;;;1.05;;
62911;SDS011;49111;51.028;4.218;2023-04-03T13:55:28;2.53;;;1.42;;
62911;SDS011;49111;51.028;4.218;2023-04-03T13:58:01;2.50;;;1.20;;
62911;SDS011;49111;51.028;4.218;2023-04-03T14:00:28;3.08;;;1.63;;
62911;SDS011;49111;51.028;4.218;2023-04-03T14:03:02;2.63;;;1.50;;
62911;SDS011;49111;51.028;4.218;2023-04-03T14:05:38;2.60;;;1.35;;
62911;SDS011;49111;51.028;4.218;2023-04-03T14:08:10;2.10;;;1.23;;
62911;SDS011;49111;51.028;4.218;2023-04-03T14:10:42;3.05;;;1.15;;
62911;SDS011;49111;51.028;4.218;2023-04-03T14:13:14;2.58;;;1.50;;
62911;SDS011;49111;51.028;4.218;2023-04-03T14:15:47;2.47;;;1.60;;
62911;SDS011;49111;51.028;4.218;2023-04-03T14:18:20;2.80;;;1.38;;
62911;SDS011;49111;51.028;4.218;2023-04-03T14:20:52;2.95;;;1.50;;
62911;SDS011;49111;51.028;4.218;2023-04-03T14:23:24;1.88;;;1.10;;
62911;SDS011;49111;51.028;4.218;2023-04-03T14:25:55;3.65;;;1.60;;
62911;SDS011;49111;51.028;4.218;2023-04-03T14:28:30;3.05;;;1.15;;
62911;SDS011;49111;51.028;4.218;2023-04-03T14:31:02;3.40;;;1.25;;
62911;SDS011;49111;51.028;4.218;2023-04-03T14:33:34;2.22;;;1.23;;
62911;SDS011;49111;51.028;4.218;2023-04-03T14:36:17;3.13;;;1.60;;
62911;SDS011;49111;51.028;4.218;2023-04-03T14:38:52;3.50;;;1.83;;
62911;SDS011;49111;51.028;4.218;2023-04-03T14:41:25;3.03;;;1.17;;
62911;SDS011;49111;51.028;4.218;2023-04-03T14:43:57;5.88;;;1.90;;
62911;SDS011;49111;51.028;4.218;2023-04-03T14:46:38;2.45;;;1.50;;
62911;SDS011;49111;51.028;4.218;2023-04-03T14:49:18;2.80;;;1.40;;
62911;SDS011;49111;51.028;4.218;2023-04-03T14:51:52;4.40;;;1.40;;
62911;SDS011;49111;51.028;4.218;2023-04-03T14:54:24;2.65;;;1.30;;
62911;SDS011;49111;51.028;4.218;2023-04-03T14:56:57;3.05;;;1.25;;
62911;SDS011;49111;51.028;4.218;2023-04-03T14:59:30;2.90;;;1.73;;
62911;SDS011;49111;51.028;4.218;2023-04-03T15:02:05;2.28;;;1.27;;
62911;SDS011;49111;51.028;4.218;2023-04-03T15:04:58;3.75;;;1.40;;
62911;SDS011;49111;51.028;4.218;2023-04-03T15:07:37;1.42;;;1.00;;
62911;SDS011;49111;51.028;4.218;2023-04-03T15:12:47;2.53;;;1.10;;
62911;SDS011;49111;51.028;4.218;2023-04-03T15:15:20;2.08;;;0.75;;
62911;SDS011;49111;51.028;4.218;2023-04-03T15:17:53;3.05;;;1.00;;
62911;SDS011;49111;51.028;4.218;2023-04-03T15:20:27;3.08;;;1.48;;
62911;SDS011;49111;51.028;4.218;2023-04-03T15:23:02;1.88;;;1.13;;
62911;SDS011;49111;51.028;4.218;2023-04-03T15:28:08;1.27;;;0.90;;
62911;SDS011;49111;51.028;4.218;2023-04-03T15:30:48;1.77;;;0.90;;
62911;SDS011;49111;51.028;4.218;2023-04-03T15:33:21;2.78;;;0.85;;
62911;SDS011;49111;51.028;4.218;2023-04-03T15:35:53;2.38;;;1.38;;
62911;SDS011;49111;51.028;4.218;2023-04-03T15:38:25;1.88;;;1.25;;
62911;SDS011;49111;51.028;4.218;2023-04-03T15:40:57;4.85;;;1.15;;
62911;SDS011;49111;51.028;4.218;2023-04-03T15:43:29;2.72;;;1.30;;
62911;SDS011;49111;51.028;4.218;2023-04-03T15:46:02;4.22;;;1.10;;
62911;SDS011;49111;51.028;4.218;2023-04-03T15:48:35;3.13;;;0.90;;
62911;SDS011;49111;51.028;4.218;2023-04-03T15:53:39;1.65;;;1.20;;
62911;SDS011;49111;51.028;4.218;2023-04-03T15:56:11;2.63;;;1.10;;
62911;SDS011;49111;51.028;4.218;2023-04-03T15:58:43;2.60;;;0.90;;
62911;SDS011;49111;51.028;4.218;2023-04-03T16:01:15;1.60;;;1.10;;
62911;SDS011;49111;51.028;4.218;2023-04-03T16:03:47;3.67;;;1.55;;
62911;SDS011;49111;51.028;4.218;2023-04-03T16:06:20;1.93;;;1.10;;
62911;SDS011;49111;51.028;4.218;2023-04-03T16:08:52;3.47;;;1.10;;
62911;SDS011;49111;51.028;4.218;2023-04-03T16:11:26;2.60;;;0.98;;
62911;SDS011;49111;51.028;4.218;2023-04-03T16:13:58;1.33;;;1.05;;
62911;SDS011;49111;51.028;4.218;2023-04-03T16:16:30;1.15;;;1.05;;
62911;SDS011;49111;51.028;4.218;2023-04-03T16:19:03;3.38;;;1.00;;
62911;SDS011;49111;51.028;4.218;2023-04-03T16:21:36;3.33;;;1.20;;
62911;SDS011;49111;51.028;4.218;2023-04-03T16:24:08;3.80;;;1.15;;
62911;SDS011;49111;51.028;4.218;2023-04-03T16:26:40;3.00;;;1.00;;
62911;SDS011;49111;51.028;4.218;2023-04-03T16:29:11;3.40;;;1.40;;
62911;SDS011;49111;51.028;4.218;2023-04-03T16:31:43;2.50;;;1.02;;
62911;SDS011;49111;51.028;4.218;2023-04-03T16:34:15;2.50;;;1.25;;
62911;SDS011;49111;51.028;4.218;2023-04-03T16:36:48;2.42;;;1.00;;
62911;SDS011;49111;51.028;4.218;2023-04-03T16:39:21;2.40;;;1.17;;
62911;SDS011;49111;51.028;4.218;2023-04-03T16:41:53;2.60;;;1.13;;
62911;SDS011;49111;51.028;4.218;2023-04-03T16:44:25;4.45;;;1.33;;
62911;SDS011;49111;51.028;4.218;2023-04-03T16:46:56;6.60;;;1.50;;